Energy IVy — A8UO8 — position and weather

sailwx.info

Track history (hours):
 
Tides and Currents Weather Stations Pressure Air Temp Water Temp Dewpoint Dewpoint Depression Visibility Wind Speed Wind Dir Waves Ship Positions

Energy IVy

Last reported at 2014-Sep-02 22:33 UTC. Time now 2014-Sep-03 00:12 UTC.
Position N 40°56' E 028°58'.

Length 180 m; draft 6.3 m.

Type: Cargo ship. MMSI: 636091925.

Date/timePositionNaut miles runAvg speedWind from/ knotsBaromVisibWave heightAir tempDewpointWater temp
2014-Sep-02 22:33N 40°56' E 028°58'10 9.9
2014-Sep-02 21:31N 40°46' E 028°56'1 0.7
2014-Sep-02 20:33N 40°45' E 028°56'0 0.2
2014-Sep-02 18:33N 40°45' E 028°56'0 0.2
2014-Sep-02 17:33N 40°46' E 028°56'0 0.4
2014-Sep-02 16:33N 40°46' E 028°56'1 1.4
2014-Sep-02 15:32N 40°47' E 028°55'3 1.6
2014-Sep-02 13:29N 40°48' E 028°51'14210.9
2014-Sep-02 00:24N 39°55' E 025°57'4812.3
2014-Sep-01 20:33N 39°09' E 025°44'1312.7
2014-Sep-01 19:33N 38°56' E 025°45'1212.3
2014-Sep-01 18:32N 38°44' E 025°46'1312.6
2014-Sep-01 17:30N 38°31' E 025°46'1212.3
2014-Sep-01 16:32N 38°19' E 025°47'1212.4
2014-Sep-01 15:33N 38°07' E 025°48'1212.2
2014-Sep-01 14:33N 37°54' E 025°48'1312.3
2014-Sep-01 13:28N 37°41' E 025°49'1112.1
2014-Sep-01 12:32N 37°30' E 025°49'1212.0
2014-Sep-01 11:34N 37°20' E 025°56'1211.6
2014-Sep-01 10:33N 37°10' E 026°04'1211.6
2014-Sep-01 09:33N 36°60' E 026°11'1411.6
2014-Sep-01 08:21N 36°49' E 026°22'1011.7
2014-Sep-01 07:30N 36°42' E 026°31'1511.7
2014-Sep-01 06:13N 36°30' E 026°43'1911.3
2014-Sep-01 04:29N 36°16' E 026°60'32111.5
2014-Aug-31 00:31N 32°13' E 031°13'1212.3
2014-Aug-30 23:30N 32°04' E 031°23'1212.1
2014-Aug-30 22:33N 31°55' E 031°32'1211.9
2014-Aug-30 21:34N 31°46' E 031°41'1211.4
2014-Aug-30 20:33N 31°36' E 031°47'8 5.6
2014-Aug-30 19:09N 31°28' E 031°46'0 0.0
2014-Aug-30 18:33N 31°28' E 031°46'0 0.0
2014-Aug-30 17:30N 31°28' E 031°46'0 0.0
2014-Aug-30 16:33N 31°28' E 031°46'0 0.0
2014-Aug-30 15:26N 31°28' E 031°46'0 0.0
2014-Aug-30 14:33N 31°28' E 031°46'0 0.0
2014-Aug-30 13:29N 31°28' E 031°46'0 0.0
2014-Aug-30 11:33N 31°28' E 031°46'0 0.0
2014-Aug-30 10:26N 31°28' E 031°46'0 0.0
2014-Aug-30 03:18N 31°28' E 031°46'0 0.0
2014-Aug-30 02:29N 31°28' E 031°46'0 0.0
2014-Aug-30 01:29N 31°28' E 031°46'0 0.0
2014-Aug-30 00:20N 31°28' E 031°46'0 0.0
2014-Aug-29 20:32N 31°28' E 031°46'0 0.0
2014-Aug-29 13:14N 31°28' E 031°46'0 0.0
2014-Aug-29 12:32N 31°28' E 031°46'0 0.0
2014-Aug-29 11:32N 31°28' E 031°46'0 0.0
2014-Aug-29 02:29N 31°28' E 031°46'0 0.0
2014-Aug-29 01:32N 31°28' E 031°46'0 0.0
2014-Aug-29 00:32N 31°28' E 031°46'0 0.0
2014-Aug-28 22:23N 31°28' E 031°46'0 0.0
2014-Aug-28 21:29N 31°28' E 031°46'0 0.0
2014-Aug-28 19:11N 31°28' E 031°46'0 0.0
2014-Aug-28 14:20N 31°28' E 031°46'10 0.2
2014-Aug-26 20:24N 31°38' E 031°45'0 0.0
2014-Aug-26 18:12N 31°38' E 031°45'0 0.0
2014-Aug-26 17:33N 31°38' E 031°45'0 0.0
2014-Aug-26 15:06N 31°38' E 031°45'0 0.0
2014-Aug-26 14:18N 31°38' E 031°45'0 0.0
2014-Aug-26 12:06N 31°38' E 031°45'0 0.0
2014-Aug-26 04:12N 31°38' E 031°45'0 0.0
2014-Aug-26 02:06N 31°38' E 031°45'0 0.0
2014-Aug-26 01:33N 31°38' E 031°45'0 0.0
2014-Aug-25 22:06N 31°38' E 031°45'0 0.0
2014-Aug-25 21:33N 31°38' E 031°45'0 0.0
2014-Aug-25 20:21N 31°38' E 031°45'0 0.0
2014-Aug-25 19:33N 31°38' E 031°45'0 0.0
2014-Aug-25 18:33N 31°38' E 031°45'0 0.0
2014-Aug-25 17:33N 31°38' E 031°45'0 0.0
2014-Aug-25 15:30N 31°38' E 031°45'0 0.0
2014-Aug-25 14:33N 31°38' E 031°45'0 0.0
2014-Aug-25 13:21N 31°38' E 031°45'0 0.0
2014-Aug-25 12:24N 31°38' E 031°45'0 0.0
2014-Aug-25 11:21N 31°38' E 031°45'0 0.0
2014-Aug-25 10:21N 31°38' E 031°45'0 0.0
2014-Aug-25 09:21N 31°38' E 031°45'0 0.0
2014-Aug-25 08:33N 31°38' E 031°45'0 0.0
2014-Aug-25 07:30N 31°38' E 031°45'0 0.0
2014-Aug-25 06:09N 31°38' E 031°45'0 0.0
2014-Aug-25 05:30N 31°38' E 031°45'0 0.0
2014-Aug-25 02:33N 31°38' E 031°45'0 0.0
2014-Aug-24 23:33N 31°38' E 031°45'0 0.0
2014-Aug-24 19:33N 31°38' E 031°45'0 0.0
2014-Aug-24 17:12N 31°38' E 031°45'0 0.0
2014-Aug-24 16:18N 31°38' E 031°45'0 0.0
2014-Aug-24 15:30N 31°38' E 031°45'0 0.0
2014-Aug-24 14:30N 31°38' E 031°45'0 0.0
2014-Aug-24 13:33N 31°38' E 031°45'0 0.0
2014-Aug-24 12:30N 31°38' E 031°45'0 0.0
2014-Aug-24 11:33N 31°38' E 031°45'  
Track history (hours):
 
Tides and Currents Weather Stations Pressure Air Temp Water Temp Dewpoint Dewpoint Depression Visibility Wind Speed Wind Dir Waves Ship Positions

Energy IVy

Last reported at 2014-Sep-02 22:33 UTC. Time now 2014-Sep-03 00:12 UTC.
Position N 40°56' E 028°58'.

Length 180 m; draft 6.3 m.

Type: Cargo ship. MMSI: 636091925.

Date/timePositionNaut miles runAvg speedWind from/ knotsBaromVisibWave heightAir tempDewpointWater temp
2014-Sep-02 22:33N 40°56' E 028°58'10 9.9
2014-Sep-02 21:31N 40°46' E 028°56'1 0.7
2014-Sep-02 20:33N 40°45' E 028°56'0 0.2
2014-Sep-02 18:33N 40°45' E 028°56'0 0.2
2014-Sep-02 17:33N 40°46' E 028°56'0 0.4
2014-Sep-02 16:33N 40°46' E 028°56'1 1.4
2014-Sep-02 15:32N 40°47' E 028°55'3 1.6
2014-Sep-02 13:29N 40°48' E 028°51'14210.9
2014-Sep-02 00:24N 39°55' E 025°57'4812.3
2014-Sep-01 20:33N 39°09' E 025°44'1312.7
2014-Sep-01 19:33N 38°56' E 025°45'1212.3
2014-Sep-01 18:32N 38°44' E 025°46'1312.6
2014-Sep-01 17:30N 38°31' E 025°46'1212.3
2014-Sep-01 16:32N 38°19' E 025°47'1212.4
2014-Sep-01 15:33N 38°07' E 025°48'1212.2
2014-Sep-01 14:33N 37°54' E 025°48'1312.3
2014-Sep-01 13:28N 37°41' E 025°49'1112.1
2014-Sep-01 12:32N 37°30' E 025°49'1212.0
2014-Sep-01 11:34N 37°20' E 025°56'1211.6
2014-Sep-01 10:33N 37°10' E 026°04'1211.6
2014-Sep-01 09:33N 36°60' E 026°11'1411.6
2014-Sep-01 08:21N 36°49' E 026°22'1011.7
2014-Sep-01 07:30N 36°42' E 026°31'1511.7
2014-Sep-01 06:13N 36°30' E 026°43'1911.3
2014-Sep-01 04:29N 36°16' E 026°60'32111.5
2014-Aug-31 00:31N 32°13' E 031°13'1212.3
2014-Aug-30 23:30N 32°04' E 031°23'1212.1
2014-Aug-30 22:33N 31°55' E 031°32'1211.9
2014-Aug-30 21:34N 31°46' E 031°41'1211.4
2014-Aug-30 20:33N 31°36' E 031°47'8 5.6
2014-Aug-30 19:09N 31°28' E 031°46'0 0.0
2014-Aug-30 18:33N 31°28' E 031°46'0 0.0
2014-Aug-30 17:30N 31°28' E 031°46'0 0.0
2014-Aug-30 16:33N 31°28' E 031°46'0 0.0
2014-Aug-30 15:26N 31°28' E 031°46'0 0.0
2014-Aug-30 14:33N 31°28' E 031°46'0 0.0
2014-Aug-30 13:29N 31°28' E 031°46'0 0.0
2014-Aug-30 11:33N 31°28' E 031°46'0 0.0
2014-Aug-30 10:26N 31°28' E 031°46'0 0.0
2014-Aug-30 03:18N 31°28' E 031°46'0 0.0
2014-Aug-30 02:29N 31°28' E 031°46'0 0.0
2014-Aug-30 01:29N 31°28' E 031°46'0 0.0
2014-Aug-30 00:20N 31°28' E 031°46'0 0.0
2014-Aug-29 20:32N 31°28' E 031°46'0 0.0
2014-Aug-29 13:14N 31°28' E 031°46'0 0.0
2014-Aug-29 12:32N 31°28' E 031°46'0 0.0
2014-Aug-29 11:32N 31°28' E 031°46'0 0.0
2014-Aug-29 02:29N 31°28' E 031°46'0 0.0
2014-Aug-29 01:32N 31°28' E 031°46'0 0.0
2014-Aug-29 00:32N 31°28' E 031°46'0 0.0
2014-Aug-28 22:23N 31°28' E 031°46'0 0.0
2014-Aug-28 21:29N 31°28' E 031°46'0 0.0
2014-Aug-28 19:11N 31°28' E 031°46'0 0.0
2014-Aug-28 14:20N 31°28' E 031°46'10 0.2
2014-Aug-26 20:24N 31°38' E 031°45'0 0.0
2014-Aug-26 18:12N 31°38' E 031°45'0 0.0
2014-Aug-26 17:33N 31°38' E 031°45'0 0.0
2014-Aug-26 15:06N 31°38' E 031°45'0 0.0
2014-Aug-26 14:18N 31°38' E 031°45'0 0.0
2014-Aug-26 12:06N 31°38' E 031°45'0 0.0
2014-Aug-26 04:12N 31°38' E 031°45'0 0.0
2014-Aug-26 02:06N 31°38' E 031°45'0 0.0
2014-Aug-26 01:33N 31°38' E 031°45'0 0.0
2014-Aug-25 22:06N 31°38' E 031°45'0 0.0
2014-Aug-25 21:33N 31°38' E 031°45'0 0.0
2014-Aug-25 20:21N 31°38' E 031°45'0 0.0
2014-Aug-25 19:33N 31°38' E 031°45'0 0.0
2014-Aug-25 18:33N 31°38' E 031°45'0 0.0
2014-Aug-25 17:33N 31°38' E 031°45'0 0.0
2014-Aug-25 15:30N 31°38' E 031°45'0 0.0
2014-Aug-25 14:33N 31°38' E 031°45'0 0.0
2014-Aug-25 13:21N 31°38' E 031°45'0 0.0
2014-Aug-25 12:24N 31°38' E 031°45'0 0.0
2014-Aug-25 11:21N 31°38' E 031°45'0 0.0
2014-Aug-25 10:21N 31°38' E 031°45'0 0.0
2014-Aug-25 09:21N 31°38' E 031°45'0 0.0
2014-Aug-25 08:33N 31°38' E 031°45'0 0.0
2014-Aug-25 07:30N 31°38' E 031°45'0 0.0
2014-Aug-25 06:09N 31°38' E 031°45'0 0.0
2014-Aug-25 05:30N 31°38' E 031°45'0 0.0
2014-Aug-25 02:33N 31°38' E 031°45'0 0.0
2014-Aug-24 23:33N 31°38' E 031°45'0 0.0
2014-Aug-24 19:33N 31°38' E 031°45'0 0.0
2014-Aug-24 17:12N 31°38' E 031°45'0 0.0
2014-Aug-24 16:18N 31°38' E 031°45'0 0.0
2014-Aug-24 15:30N 31°38' E 031°45'0 0.0
2014-Aug-24 14:30N 31°38' E 031°45'0 0.0
2014-Aug-24 13:33N 31°38' E 031°45'0 0.0
2014-Aug-24 12:30N 31°38' E 031°45'0 0.0
2014-Aug-24 11:33N 31°38' E 031°45'  

Dump ship's entire track history